Time;durP1;ratioP1;P1;durP2;ratioP2;P2;SDS_P1;SDS_P2;PMS_P1;PMS_P2;Temp;Humidity;BMP_temperature;BMP_pressure;BME280_temperature;BME280_humidity;BME280_pressure;Samples;Min_cycle;Max_cycle;Signal;HPM_P1;HPM_P2
2022/07/07 00:01:11;;;;;;;2.53;2.05;;;;;;;17.15;69.01;96244.63;5080086;28;20690;-65
2022/07/07 00:03:37;;;;;;;1.90;1.80;;;;;;;17.17;69.31;96244.44;5084612;28;20066;-65
2022/07/07 00:06:02;;;;;;;2.00;1.80;;;;;;;17.11;70.29;96248.59;5077660;28;20107;-65
2022/07/07 00:08:28;;;;;;;1.63;1.55;;;;;;;17.11;69.45;96247.78;5081634;28;20080;-65
2022/07/07 00:10:54;;;;;;;2.22;1.90;;;;;;;17.07;69.57;96244.63;5077366;28;20491;-65
2022/07/07 00:13:19;;;;;;;1.88;1.77;;;;;;;17.08;69.09;96240.97;5079210;28;20024;-65
2022/07/07 00:15:45;;;;;;;3.72;2.03;;;;;;;17.02;69.77;96247.81;5079082;28;20533;-65
2022/07/07 00:18:14;;;;;;;2.20;2.05;;;;;;;17.03;70.32;96244.16;5079421;28;20487;-65
2022/07/07 00:20:39;;;;;;;4.85;1.88;;;;;;;16.98;71.98;96245.63;5076188;28;20028;-65
2022/07/07 00:23:05;;;;;;;1.90;1.80;;;;;;;16.91;70.83;96240.13;5069329;28;20029;-65
2022/07/07 00:25:30;;;;;;;2.75;2.05;;;;;;;16.83;71.70;96243.63;5078747;28;20115;-65
2022/07/07 00:27:56;;;;;;;1.90;1.80;;;;;;;16.76;71.05;96243.47;5083242;28;20023;-65
2022/07/07 00:30:21;;;;;;;3.60;2.10;;;;;;;16.76;71.12;96247.97;5084071;28;20730;-65
2022/07/07 00:32:47;;;;;;;2.20;2.10;;;;;;;16.74;71.98;96245.47;5082071;28;20036;-65
2022/07/07 00:35:13;;;;;;;2.03;1.80;;;;;;;16.74;73.13;96239.34;5078502;28;20168;-65
2022/07/07 00:37:39;;;;;;;2.08;1.98;;;;;;;16.70;72.71;96240.66;5085647;28;20476;-65
2022/07/07 00:40:06;;;;;;;2.10;2.00;;;;;;;16.71;71.98;96239.69;5076377;28;20027;-65
2022/07/07 00:42:31;;;;;;;2.58;2.42;;;;;;;16.75;71.72;96238.34;5078040;28;20031;-66
2022/07/07 00:44:56;;;;;;;4.32;2.10;;;;;;;16.76;71.31;96240.00;5078167;28;20451;-65
2022/07/07 00:47:22;;;;;;;1.83;1.73;;;;;;;16.71;71.62;96237.00;5077440;28;20029;-65
2022/07/07 00:49:47;;;;;;;2.30;2.10;;;;;;;16.69;71.61;96236.31;5074022;28;20030;-65
2022/07/07 00:52:13;;;;;;;4.30;2.33;;;;;;;16.55;73.04;96238.66;5084641;28;20033;-65
2022/07/07 00:54:39;;;;;;;2.22;2.10;;;;;;;16.40;73.18;96232.34;5081694;28;20500;-65
2022/07/07 00:57:05;;;;;;;4.75;2.40;;;;;;;16.35;73.51;96232.03;5076534;28;20052;-65
2022/07/07 00:59:33;;;;;;;1.98;1.88;;;;;;;16.30;72.74;96229.84;5074648;28;20078;-65
2022/07/07 01:01:58;;;;;;;2.22;2.10;;;;;;;16.27;73.08;96233.69;5076887;28;20016;-65
2022/07/07 01:04:24;;;;;;;2.13;1.92;;;;;;;16.28;74.17;96231.84;5079930;28;20028;-65
2022/07/07 01:06:50;;;;;;;5.07;2.05;;;;;;;16.31;73.73;96228.84;5086165;28;20100;-65
2022/07/07 01:09:16;;;;;;;2.30;2.10;;;;;;;16.28;73.98;96240.66;5077826;28;20035;-64
2022/07/07 01:12:00;;;;;;;2.60;2.08;;;;;;;16.24;74.04;96233.97;5074119;28;20416;-65
2022/07/07 01:14:25;;;;;;;3.15;2.35;;;;;;;16.26;73.29;96236.50;5075009;28;20391;-65
2022/07/07 01:16:52;;;;;;;2.08;1.98;;;;;;;16.29;72.88;96236.16;5077295;28;20028;-65
2022/07/07 01:19:19;;;;;;;2.15;2.03;;;;;;;16.22;73.49;96233.31;5068767;28;20089;-65
2022/07/07 01:21:53;;;;;;;2.10;1.90;;;;;;;16.21;73.30;96233.50;5073675;28;20028;-65
2022/07/07 01:24:22;;;;;;;3.28;2.22;;;;;;;16.21;73.40;96238.81;5081908;28;20074;-65
2022/07/07 01:26:48;;;;;;;2.03;1.92;;;;;;;16.21;73.43;96244.13;5079622;28;20025;-65
2022/07/07 01:29:13;;;;;;;2.25;2.13;;;;;;;16.17;73.65;96233.84;5084285;28;20081;-65
2022/07/07 01:31:39;;;;;;;2.38;2.17;;;;;;;16.15;74.26;96245.59;5087426;28;20020;-65
2022/07/07 01:34:05;;;;;;;2.30;2.10;;;;;;;16.13;73.76;96243.09;5077307;28;20406;-65
2022/07/07 01:36:30;;;;;;;2.50;2.30;;;;;;;16.08;75.14;96236.63;5075363;28;20476;-65
2022/07/07 01:38:56;;;;;;;4.00;2.03;;;;;;;16.07;75.00;96235.78;5072789;28;20042;-65
2022/07/07 01:41:21;;;;;;;2.47;2.28;;;;;;;16.04;74.72;96234.31;5078620;28;20025;-65
2022/07/07 01:43:46;;;;;;;1.95;1.85;;;;;;;16.06;74.69;96234.13;5081763;28;20051;-65
2022/07/07 01:46:12;;;;;;;2.38;2.17;;;;;;;16.11;74.20;96231.81;5076398;28;20032;-65
2022/07/07 01:48:37;;;;;;;2.13;2.03;;;;;;;16.03;74.82;96230.00;5082738;28;20055;-65
2022/07/07 01:51:03;;;;;;;4.82;2.30;;;;;;;15.99;73.96;96228.63;5075093;28;20023;-65
2022/07/07 01:53:29;;;;;;;3.25;1.90;;;;;;;15.99;74.21;96231.28;5080550;28;20035;-64
2022/07/07 01:55:54;;;;;;;3.00;2.15;;;;;;;15.94;74.33;96238.91;5081135;28;20020;-65
2022/07/07 01:58:20;;;;;;;2.05;1.95;;;;;;;15.94;74.52;96232.78;5083370;28;20499;-65
2022/07/07 02:00:45;;;;;;;3.13;2.33;;;;;;;15.88;74.85;96243.03;5074486;28;20094;-64
2022/07/07 02:03:11;;;;;;;2.10;1.90;;;;;;;15.84;75.13;96241.69;5078366;28;20036;-65
2022/07/07 02:05:36;;;;;;;2.65;2.03;;;;;;;15.84;75.47;96241.69;5076489;28;20459;-65
2022/07/07 02:08:01;;;;;;;2.25;2.15;;;;;;;15.79;75.90;96240.50;5071451;28;20025;-65
2022/07/07 02:13:11;;;;;;;1.98;1.88;;;;;;;15.71;75.76;96239.50;5074342;28;20035;-65
2022/07/07 02:15:36;;;;;;;2.10;1.90;;;;;;;15.66;75.81;96243.59;5076723;28;20025;-65
2022/07/07 02:18:02;;;;;;;2.55;2.33;;;;;;;15.87;74.93;96243.19;5073155;28;20056;-65
2022/07/07 02:20:27;;;;;;;2.90;2.20;;;;;;;15.78;74.72;96246.81;5073441;28;20488;-65
2022/07/07 02:22:53;;;;;;;2.78;2.45;;;;;;;15.80;74.37;96236.84;5075894;28;20120;-65
2022/07/07 02:25:18;;;;;;;2.03;1.92;;;;;;;15.76;74.53;96231.06;5073008;28;20052;-65
2022/07/07 02:27:43;;;;;;;3.92;2.30;;;;;;;15.67;75.91;96232.84;5073809;28;20080;-65
2022/07/07 02:30:09;;;;;;;2.47;2.38;;;;;;;15.57;76.58;96224.16;5084516;28;20034;-65
2022/07/07 02:32:35;;;;;;;6.60;2.42;;;;;;;15.47;77.53;96233.09;5087916;28;20019;-65
2022/07/07 02:35:01;;;;;;;2.00;1.90;;;;;;;15.49;76.90;96229.44;5081556;28;20441;-65
2022/07/07 02:37:27;;;;;;;3.95;2.50;;;;;;;15.48;76.72;96228.63;5076973;28;20115;-65
2022/07/07 02:39:53;;;;;;;2.20;2.10;;;;;;;15.49;77.08;96235.59;5083712;28;20031;-64
2022/07/07 02:42:18;;;;;;;2.47;2.38;;;;;;;15.40;77.11;96233.88;5080896;28;20036;-64
2022/07/07 02:44:43;;;;;;;2.50;2.10;;;;;;;15.41;76.72;96227.59;5085111;28;20040;-65
2022/07/07 02:47:09;;;;;;;2.50;2.30;;;;;;;15.31;77.41;96233.00;5079621;28;20115;-65
2022/07/07 02:49:34;;;;;;;2.03;1.88;;;;;;;15.31;76.98;96243.63;5081739;28;20097;-65
2022/07/07 02:52:00;;;;;;;3.55;2.17;;;;;;;15.32;76.78;96240.81;5077377;28;20407;-65
2022/07/07 02:54:25;;;;;;;2.53;2.25;;;;;;;15.33;76.72;96245.16;5087464;28;20047;-64
2022/07/07 02:56:51;;;;;;;2.30;2.20;;;;;;;15.26;78.19;96245.94;5083997;28;20048;-65
2022/07/07 02:59:17;;;;;;;4.03;3.20;;;;;;;15.21;77.99;96238.44;5093416;28;20395;-65
2022/07/07 03:01:42;;;;;;;2.60;2.40;;;;;;;15.24;78.19;96243.41;5086500;28;20031;-65
2022/07/07 03:04:08;;;;;;;2.38;1.98;;;;;;;15.21;78.39;96248.22;5080009;28;20539;-65
2022/07/07 03:06:33;;;;;;;2.30;2.15;;;;;;;15.20;77.67;96242.06;5076875;28;20025;-64
2022/07/07 03:08:58;;;;;;;2.00;1.90;;;;;;;15.21;77.98;96251.69;5088113;28;20028;-65
2022/07/07 03:11:24;;;;;;;1.80;1.70;;;;;;;15.22;77.50;96248.06;5080682;28;20025;-65
2022/07/07 03:13:49;;;;;;;2.30;2.10;;;;;;;15.27;76.62;96248.44;5082468;28;20416;-65
2022/07/07 03:16:14;;;;;;;2.53;2.33;;;;;;;15.24;76.98;96253.22;5077896;28;20103;-65
2022/07/07 03:18:40;;;;;;;2.40;2.20;;;;;;;15.13;77.59;96263.09;5084928;28;20024;-65
2022/07/07 03:21:05;;;;;;;3.53;1.90;;;;;;;15.07;78.06;96269.03;5079942;28;20479;-65
2022/07/07 03:23:31;;;;;;;2.30;2.10;;;;;;;15.01;78.07;96259.03;5082447;28;20127;-64
2022/07/07 03:25:56;;;;;;;3.92;2.30;;;;;;;14.99;78.14;96267.13;5082360;28;20054;-65
2022/07/07 03:28:21;;;;;;;2.25;2.15;;;;;;;14.95;78.99;96262.31;5088680;28;20031;-65
2022/07/07 03:30:47;;;;;;;3.53;2.15;;;;;;;14.95;78.56;96271.09;5083536;28;20063;-64
2022/07/07 03:33:12;;;;;;;2.35;2.25;;;;;;;14.92;78.41;96271.41;5083874;28;20024;-65
2022/07/07 03:35:39;;;;;;;2.28;2.10;;;;;;;14.86;78.93;96264.91;5076574;28;20073;-65
2022/07/07 03:38:05;;;;;;;4.43;2.20;;;;;;;14.86;79.08;96264.09;5078328;28;20016;-65
2022/07/07 03:40:30;;;;;;;2.42;2.22;;;;;;;14.81;79.08;96269.84;5076832;28;20028;-65
2022/07/07 03:42:56;;;;;;;5.15;2.30;;;;;;;14.75;80.45;96270.47;5075319;28;20040;-64
2022/07/07 03:45:21;;;;;;;2.95;2.20;;;;;;;14.72;79.98;96266.28;5077846;28;20037;-65
2022/07/07 03:47:47;;;;;;;2.35;2.15;;;;;;;14.71;80.48;96279.72;5076005;28;20106;-65
2022/07/07 03:50:12;;;;;;;4.68;2.10;;;;;;;14.70;80.52;96278.00;5081702;28;20418;-65
2022/07/07 03:52:37;;;;;;;3.25;2.25;;;;;;;14.72;80.40;96286.69;5083191;28;20032;-64
2022/07/07 03:55:04;;;;;;;3.33;2.50;;;;;;;14.70;81.25;96273.53;5075931;28;20021;-64
2022/07/07 03:57:29;;;;;;;2.53;2.33;;;;;;;14.70;80.30;96278.00;5082367;28;20494;-65
2022/07/07 03:59:54;;;;;;;4.15;2.33;;;;;;;14.72;79.66;96274.25;5080092;28;20080;-65
2022/07/07 04:02:20;;;;;;;5.30;2.58;;;;;;;14.73;79.76;96275.09;5074584;28;20077;-65
2022/07/07 04:04:45;;;;;;;2.00;1.90;;;;;;;14.67;81.04;96273.00;5079725;28;20043;-64
2022/07/07 04:07:11;;;;;;;3.35;2.22;;;;;;;14.65;81.12;96264.38;5092071;28;20034;-65
2022/07/07 04:09:36;;;;;;;2.42;2.22;;;;;;;14.64;81.32;96268.00;5093776;28;20074;-65
2022/07/07 04:12:02;;;;;;;2.67;2.45;;;;;;;14.55;82.06;96270.59;5083132;28;20027;-64
2022/07/07 04:14:27;;;;;;;2.58;2.47;;;;;;;14.54;81.43;96268.09;5080502;28;20473;-65
2022/07/07 04:16:52;;;;;;;2.28;2.08;;;;;;;14.56;80.97;96269.63;5079593;28;20443;-64
2022/07/07 04:19:18;;;;;;;5.78;5.28;;;;;;;14.59;80.79;96266.66;5081732;28;20024;-65
2022/07/07 04:21:43;;;;;;;3.95;3.28;;;;;;;14.67;80.32;96273.84;5074861;28;20122;-65
2022/07/07 04:24:09;;;;;;;4.78;3.05;;;;;;;14.68;79.92;96270.22;5079431;28;20024;-65
2022/07/07 04:26:34;;;;;;;2.78;2.33;;;;;;;14.62;79.86;96270.84;5082016;28;20078;-65
2022/07/07 04:28:59;;;;;;;2.33;2.13;;;;;;;14.57;80.60;96275.75;5093841;28;20020;-65
2022/07/07 04:31:25;;;;;;;2.40;2.28;;;;;;;14.47;81.66;96283.75;5078319;28;20028;-65
2022/07/07 04:33:50;;;;;;;2.35;2.20;;;;;;;14.51;81.16;96281.66;5086867;28;20020;-65
2022/07/07 04:36:15;;;;;;;3.53;2.40;;;;;;;14.53;81.55;96283.19;5085925;28;20471;-65
2022/07/07 04:38:41;;;;;;;5.30;2.40;;;;;;;14.54;81.17;96287.50;5086022;28;20048;-65
2022/07/07 04:41:06;;;;;;;3.33;2.45;;;;;;;14.48;82.46;96288.09;5082503;28;20065;-64
2022/07/07 04:43:31;;;;;;;5.05;2.45;;;;;;;14.49;83.15;96292.41;5081427;28;20542;-65
2022/07/07 04:45:57;;;;;;;2.50;2.30;;;;;;;14.45;83.84;96293.69;5086041;28;20020;-65
2022/07/07 04:48:22;;;;;;;5.03;2.30;;;;;;;14.44;83.79;96289.38;5080363;28;20085;-66
2022/07/07 04:50:48;;;;;;;3.47;2.13;;;;;;;14.45;83.72;96294.53;5073316;28;20032;-65
2022/07/07 04:53:14;;;;;;;2.35;2.10;;;;;;;14.38;83.87;96287.34;5074930;28;20132;-67
2022/07/07 04:55:39;;;;;;;3.28;2.50;;;;;;;14.50;83.31;96291.44;5075824;28;20020;-66
2022/07/07 04:58:04;;;;;;;2.97;2.22;;;;;;;14.59;83.81;96297.63;5073773;28;20487;-67
2022/07/07 05:00:30;;;;;;;3.13;2.50;;;;;;;14.57;83.94;96296.94;5080073;28;20024;-66
2022/07/07 05:02:55;;;;;;;6.57;2.42;;;;;;;14.60;83.85;96305.41;5074561;28;20012;-66
2022/07/07 05:05:20;;;;;;;3.28;2.50;;;;;;;14.64;83.79;96300.66;5079420;28;20024;-65
2022/07/07 05:07:46;;;;;;;4.30;2.67;;;;;;;14.63;84.22;96306.09;5079328;28;20016;-65
2022/07/07 05:10:11;;;;;;;2.55;2.30;;;;;;;14.63;83.80;96303.44;5080315;28;20548;-65
2022/07/07 05:12:37;;;;;;;3.60;2.50;;;;;;;14.72;83.93;96310.53;5081535;28;20020;-65
2022/07/07 05:15:03;;;;;;;3.78;2.72;;;;;;;14.85;83.16;96308.31;5072896;28;20025;-65
2022/07/07 05:17:28;;;;;;;2.67;2.47;;;;;;;15.02;81.20;96305.78;5079913;28;20024;-64
2022/07/07 05:19:53;;;;;;;8.55;3.38;;;;;;;15.10;80.73;96311.13;5076804;28;20028;-65
2022/07/07 05:22:19;;;;;;;2.80;2.60;;;;;;;15.21;79.29;96311.88;5079807;28;20028;-65
2022/07/07 05:24:44;;;;;;;2.53;2.33;;;;;;;15.31;78.83;96315.25;5075672;28;20020;-65
2022/07/07 05:27:09;;;;;;;2.40;2.30;;;;;;;15.43;78.31;96316.66;5081389;28;20027;-65
2022/07/07 05:29:35;;;;;;;2.60;2.40;;;;;;;15.52;77.93;96325.50;5070836;28;20125;-65
2022/07/07 05:32:00;;;;;;;2.60;2.40;;;;;;;15.62;77.50;96325.38;5083430;28;20031;-65
2022/07/07 05:34:25;;;;;;;2.33;2.22;;;;;;;15.85;76.46;96323.00;5079949;28;20047;-64
2022/07/07 05:36:51;;;;;;;2.88;2.63;;;;;;;15.93;76.56;96324.88;5082264;28;20025;-67
2022/07/07 05:39:16;;;;;;;2.40;1.98;;;;;;;16.09;76.42;96321.44;5079281;28;20110;-65
2022/07/07 05:41:42;;;;;;;6.10;2.13;;;;;;;16.24;74.84;96319.00;5074879;28;20111;-65
2022/07/07 05:44:08;;;;;;;2.38;2.17;;;;;;;16.35;75.56;96317.84;5082729;28;20059;-63
2022/07/07 05:46:33;;;;;;;2.40;2.30;;;;;;;16.44;74.33;96319.56;5075751;28;20059;-64
2022/07/07 05:48:59;;;;;;;2.20;2.10;;;;;;;16.53;73.53;96320.41;5080564;28;20044;-65
2022/07/07 05:51:24;;;;;;;2.25;2.10;;;;;;;16.60;73.10;96324.06;5078554;28;20024;-62
2022/07/07 05:53:49;;;;;;;2.65;2.40;;;;;;;16.78;73.14;96320.41;5071946;28;20411;-65
2022/07/07 05:56:15;;;;;;;2.20;2.10;;;;;;;16.83;72.71;96323.41;5073904;28;20103;-64
2022/07/07 05:58:40;;;;;;;3.58;2.65;;;;;;;16.93;72.20;96311.78;5089941;28;20028;-65
2022/07/07 06:01:05;;;;;;;5.88;2.40;;;;;;;17.06;71.70;96322.75;5075802;28;20019;-66
2022/07/07 06:03:31;;;;;;;5.35;2.28;;;;;;;17.14;72.15;96325.44;5080044;28;20035;-67
2022/07/07 06:05:56;;;;;;;2.22;1.95;;;;;;;17.18;71.71;96320.59;5080164;28;20085;-65
2022/07/07 06:08:22;;;;;;;2.50;2.40;;;;;;;17.22;70.69;96316.59;5085306;28;20028;-67
2022/07/07 06:10:47;;;;;;;9.05;2.88;;;;;;;17.26;69.45;96317.94;5088170;28;20479;-67
2022/07/07 06:13:13;;;;;;;2.17;2.00;;;;;;;17.30;69.78;96324.59;5082876;28;20020;-65
2022/07/07 06:15:38;;;;;;;2.30;1.95;;;;;;;17.32;69.84;96319.91;5076680;28;20048;-64
2022/07/07 06:18:04;;;;;;;2.58;2.38;;;;;;;17.46;70.61;96323.72;5087901;28;20036;-65
2022/07/07 06:20:30;;;;;;;8.75;6.97;;;;;;;17.72;68.76;96321.81;5084883;28;20039;-65
2022/07/07 06:22:55;;;;;;;7.10;3.40;;;;;;;17.96;67.75;96328.88;5091346;28;20482;-65
2022/07/07 06:25:21;;;;;;;3.70;2.80;;;;;;;18.19;66.86;96328.13;5089553;28;20475;-65
2022/07/07 06:27:46;;;;;;;3.38;2.80;;;;;;;18.39;65.15;96325.88;5082230;28;20023;-65
2022/07/07 06:30:12;;;;;;;2.13;2.00;;;;;;;18.56;64.02;96329.25;5085250;28;20487;-66
2022/07/07 06:32:37;;;;;;;2.90;2.65;;;;;;;18.82;63.65;96327.28;5080705;28;20036;-66
2022/07/07 06:35:04;;;;;;;2.40;2.20;;;;;;;19.07;62.43;96325.25;5082300;28;20486;-66
2022/07/07 06:37:30;;;;;;;2.42;2.20;;;;;;;19.39;61.77;96327.78;5086300;28;20040;-66
2022/07/07 06:39:55;;;;;;;2.78;2.58;;;;;;;19.68;61.71;96332.34;5079817;28;20016;-67
2022/07/07 06:42:21;;;;;;;2.20;2.00;;;;;;;19.99;60.09;96327.84;5078583;28;20040;-66
2022/07/07 06:44:46;;;;;;;2.35;1.70;;;;;;;20.35;59.12;96331.56;5082614;28;20112;-66
2022/07/07 06:47:11;;;;;;;3.05;2.05;;;;;;;20.86;56.90;96323.47;5076721;28;20028;-66
2022/07/07 06:49:37;;;;;;;2.60;2.28;;;;;;;21.20;56.39;96336.34;5078386;28;20520;-66
2022/07/07 06:52:02;;;;;;;2.08;1.85;;;;;;;21.43;55.21;96341.44;5080204;28;20028;-66
2022/07/07 06:54:27;;;;;;;1.80;1.70;;;;;;;21.60;53.97;96340.13;5085897;28;20020;-67
2022/07/07 06:56:53;;;;;;;2.33;2.22;;;;;;;21.86;54.11;96341.34;5082180;28;20108;-67
2022/07/07 06:59:18;;;;;;;3.13;1.77;;;;;;;21.87;52.97;96339.50;5086982;28;20700;-67
2022/07/07 07:01:44;;;;;;;3.25;3.00;;;;;;;22.06;52.96;96347.84;5084063;28;20037;-67
2022/07/07 07:04:13;;;;;;;4.53;3.70;;;;;;;22.26;53.39;96351.44;5080078;28;20020;-67
2022/07/07 07:06:40;;;;;;;4.43;3.88;;;;;;;22.68;50.05;96339.84;5080327;28;20093;-67
2022/07/07 07:09:06;;;;;;;3.72;2.40;;;;;;;22.74;48.48;96344.41;5087013;28;20052;-67
2022/07/07 07:11:31;;;;;;;1.90;1.80;;;;;;;23.06;47.91;96341.16;5079016;28;20540;-67
2022/07/07 07:13:58;;;;;;;7.28;1.92;;;;;;;23.34;48.23;96338.31;5081213;28;20024;-68
2022/07/07 07:16:24;;;;;;;1.85;1.70;;;;;;;23.52;46.68;96339.50;5076467;28;20040;-67
2022/07/07 07:18:49;;;;;;;2.83;1.70;;;;;;;23.88;46.50;96343.59;5077380;28;20020;-67
2022/07/07 07:21:15;;;;;;;1.65;1.55;;;;;;;24.20;45.07;96343.72;5085219;28;20028;-68
2022/07/07 07:23:40;;;;;;;2.03;1.52;;;;;;;24.33;44.68;96332.09;5077289;28;20115;-68
2022/07/07 07:26:07;;;;;;;1.55;1.45;;;;;;;24.32;44.77;96323.19;5074828;28;20384;-67
2022/07/07 07:28:34;;;;;;;2.30;1.50;;;;;;;24.46;44.22;96326.63;5075974;28;20032;-67
2022/07/07 07:31:00;;;;;;;4.53;1.50;;;;;;;24.86;44.08;96333.69;5079200;28;20668;-68
2022/07/07 07:33:26;;;;;;;2.03;1.70;;;;;;;25.13;42.48;96333.50;5078973;28;20024;-68
2022/07/07 07:35:52;;;;;;;6.28;1.60;;;;;;;25.11;42.49;96332.91;5086565;28;20096;-68
2022/07/07 07:38:17;;;;;;;5.82;1.80;;;;;;;25.22;42.34;96331.38;5080787;28;20105;-68
2022/07/07 07:40:42;;;;;;;2.15;1.70;;;;;;;25.17;42.11;96329.34;5076296;28;20063;-68
2022/07/07 07:43:08;;;;;;;5.85;2.35;;;;;;;25.55;41.80;96329.47;5088465;28;20027;-68
2022/07/07 07:45:33;;;;;;;9.25;3.92;;;;;;;25.42;43.08;96320.41;5081841;28;20020;-67
2022/07/07 07:48:01;;;;;;;2.58;1.83;;;;;;;25.65;41.74;96319.00;5076358;28;20538;-68
2022/07/07 07:50:27;;;;;;;1.60;1.50;;;;;;;25.62;39.87;96319.44;5073409;28;20040;-67
2022/07/07 07:52:53;;;;;;;2.70;1.70;;;;;;;25.45;41.38;96311.06;5072926;28;20025;-67
2022/07/07 07:55:19;;;;;;;1.60;1.50;;;;;;;25.94;41.40;96313.91;5080004;28;20025;-67
2022/07/07 07:57:45;;;;;;;3.67;1.60;;;;;;;26.17;41.00;96309.72;5082664;28;20119;-68
2022/07/07 08:00:13;;;;;;;1.50;1.40;;;;;;;26.29;38.57;96312.50;5081701;28;20157;-67
2022/07/07 08:02:39;;;;;;;2.70;1.60;;;;;;;26.00;39.64;96304.94;5090644;28;20062;-68
2022/07/07 08:05:05;;;;;;;1.63;1.52;;;;;;;26.42;39.29;96306.13;5079463;28;20109;-68
2022/07/07 08:07:32;;;;;;;2.80;1.40;;;;;;;26.53;39.67;96301.81;5080825;28;20490;-67
2022/07/07 08:09:58;;;;;;;4.03;1.65;;;;;;;26.54;40.71;96304.28;5079472;28;20403;-68
2022/07/07 08:12:23;;;;;;;1.58;1.48;;;;;;;26.34;40.17;96307.25;5084033;28;20028;-67
2022/07/07 08:14:49;;;;;;;2.78;1.45;;;;;;;26.72;38.66;96302.59;5073218;28;20025;-67
2022/07/07 08:17:14;;;;;;;1.88;1.52;;;;;;;26.38;40.21;96296.81;5079337;28;20027;-67
2022/07/07 08:19:39;;;;;;;1.50;1.40;;;;;;;26.37;39.43;96298.69;5076175;28;20039;-67
2022/07/07 08:22:05;;;;;;;3.50;1.70;;;;;;;27.05;38.96;96297.75;5074562;28;20025;-67
2022/07/07 08:24:30;;;;;;;2.95;1.83;;;;;;;26.90;37.60;96307.13;5082131;28;20019;-67
2022/07/07 08:26:55;;;;;;;4.45;1.83;;;;;;;26.94;38.79;96307.50;5073940;28;20052;-67
2022/07/07 08:29:21;;;;;;;2.15;1.95;;;;;;;27.28;38.23;96302.34;5083771;28;20032;-68
2022/07/07 08:31:46;;;;;;;2.00;1.80;;;;;;;26.97;38.23;96305.16;5087210;28;20032;-67
2022/07/07 08:34:12;;;;;;;2.30;1.60;;;;;;;27.10;38.40;96304.13;5073614;28;20028;-68
2022/07/07 08:36:38;;;;;;;1.73;1.58;;;;;;;27.20;39.06;96313.53;5076357;28;20031;-67
2022/07/07 08:39:03;;;;;;;2.00;1.40;;;;;;;27.42;37.38;96311.91;5072596;28;20033;-67
2022/07/07 08:41:29;;;;;;;1.92;1.50;;;;;;;27.88;36.79;96308.59;5081494;28;20481;-68
2022/07/07 08:43:55;;;;;;;2.75;1.65;;;;;;;27.81;37.29;96318.75;5074126;28;20032;-67
2022/07/07 08:46:21;;;;;;;1.45;1.30;;;;;;;27.90;35.77;96311.91;5083049;28;20411;-68
2022/07/07 08:48:47;;;;;;;1.40;1.30;;;;;;;27.86;36.55;96303.44;5089077;28;20024;-67
2022/07/07 08:51:15;;;;;;;1.50;1.40;;;;;;;28.23;36.44;96302.34;5072321;28;20039;-68
2022/07/07 08:53:43;;;;;;;4.28;1.85;;;;;;;28.31;35.17;96309.25;5070658;28;20024;-67
2022/07/07 08:56:09;;;;;;;1.63;1.52;;;;;;;28.38;36.10;96311.81;5073464;28;20028;-67
2022/07/07 08:58:35;;;;;;;3.92;1.30;;;;;;;28.13;36.68;96312.91;5078747;28;20039;-67
2022/07/07 09:01:05;;;;;;;4.32;1.42;;;;;;;28.22;35.94;96313.38;5081143;28;20040;-67
2022/07/07 09:03:31;;;;;;;1.60;1.50;;;;;;;28.50;35.54;96315.31;5076469;28;20095;-66
2022/07/07 09:05:57;;;;;;;5.38;1.45;;;;;;;28.29;36.15;96312.19;5076730;28;20103;-67
2022/07/07 09:08:24;;;;;;;1.45;1.35;;;;;;;28.52;35.10;96307.75;5078449;28;20020;-67
2022/07/07 09:10:49;;;;;;;1.80;1.70;;;;;;;28.51;34.91;96316.94;5085148;28;20024;-67
2022/07/07 09:13:32;;;;;;;2.15;1.52;;;;;;;27.88;36.30;96305.91;5074860;28;20024;-67
2022/07/07 09:15:58;;;;;;;4.80;1.48;;;;;;;27.87;37.94;96313.22;5081144;28;20058;-67
2022/07/07 09:18:32;;;;;;;4.18;1.33;;;;;;;28.06;36.45;96317.63;5078914;28;20052;-67
2022/07/07 09:20:58;;;;;;;;;;;;;;;27.97;37.58;96315.31;5080738;28;20053;-67
2022/07/07 09:23:24;;;;;;;1.88;1.42;;;;;;;28.36;35.38;96316.63;5081655;28;19912;-67
2022/07/07 09:25:50;;;;;;;1.48;1.38;;;;;;;28.18;36.05;96318.44;5073821;28;20023;-68
2022/07/07 09:28:15;;;;;;;2.80;1.50;;;;;;;28.47;35.73;96313.09;5080046;28;20028;-67
2022/07/07 09:30:43;;;;;;;2.42;1.48;;;;;;;28.65;35.34;96314.75;5074753;28;20016;-67
2022/07/07 09:33:22;;;;;;;6.82;1.55;;;;;;;28.66;35.26;96315.59;5091163;28;20088;-68
2022/07/07 09:38:35;;;;;;;5.13;1.70;;;;;;;28.99;34.38;96323.00;5082969;28;20086;-68
2022/07/07 09:41:05;;;;;;;2.58;1.55;;;;;;;28.72;34.97;96323.56;5080096;28;20024;-67
2022/07/07 09:43:33;;;;;;;2.47;1.58;;;;;;;28.97;34.67;96324.28;5076812;28;20017;-68
2022/07/07 09:46:26;;;;;;;3.83;1.60;;;;;;;29.35;34.21;96317.34;5078197;28;20103;-67
2022/07/07 09:48:57;;;;;;;2.40;1.67;;;;;;;29.02;34.56;96314.38;5087720;28;20141;-67
2022/07/07 09:51:27;;;;;;;2.75;1.60;;;;;;;29.15;35.56;96307.81;5078723;28;20028;-68
2022/07/07 09:54:06;;;;;;;2.45;1.63;;;;;;;29.10;34.81;96315.88;5077323;28;20507;-68
2022/07/07 09:56:33;;;;;;;2.13;1.35;;;;;;;29.42;34.31;96317.22;5085544;28;20110;-68
2022/07/07 09:59:00;;;;;;;3.47;1.63;;;;;;;29.53;34.21;96329.03;5084805;28;20017;-68
2022/07/07 10:01:28;;;;;;;2.30;1.42;;;;;;;29.43;34.62;96319.66;5082863;28;20434;-68
2022/07/07 10:03:57;;;;;;;2.13;1.75;;;;;;;29.42;33.67;96328.88;5075963;28;20104;-68
2022/07/07 10:06:25;;;;;;;3.72;2.20;;;;;;;29.41;34.11;96315.56;5077361;28;20112;-67
2022/07/07 10:08:55;;;;;;;2.55;1.70;;;;;;;29.61;33.80;96315.03;5089668;28;20032;-68
2022/07/07 10:11:22;;;;;;;2.97;1.60;;;;;;;30.23;32.81;96315.91;5079420;28;20056;-68
2022/07/07 10:13:49;;;;;;;5.30;1.80;;;;;;;30.00;32.67;96320.47;5084480;28;20437;-68
2022/07/07 10:16:14;;;;;;;3.42;1.77;;;;;;;29.96;32.92;96316.63;5077947;28;20033;-68
2022/07/07 10:18:42;;;;;;;4.15;1.60;;;;;;;29.97;33.66;96328.28;5106384;28;20084;-68
2022/07/07 10:21:08;;;;;;;1.65;1.33;;;;;;;29.83;32.80;96333.25;5079215;28;20051;-68
2022/07/07 10:23:34;;;;;;;7.75;1.73;;;;;;;30.47;32.12;96331.94;5079900;28;20391;-68
2022/07/07 10:26:00;;;;;;;2.90;1.60;;;;;;;30.59;31.39;96335.31;5077258;28;20020;-67
2022/07/07 10:28:51;;;;;;;4.15;1.50;;;;;;;30.96;30.37;96338.44;5078046;28;20492;-68
2022/07/07 10:31:24;;;;;;;2.28;1.58;;;;;;;30.93;30.26;96336.22;5078597;28;20039;-68
2022/07/07 10:33:54;;;;;;;2.42;1.45;;;;;;;30.53;32.13;96333.63;5077414;28;20103;-68
2022/07/07 10:36:20;;;;;;;11.00;1.67;;;;;;;30.08;31.97;96340.13;5080996;28;20055;-68
2022/07/07 10:38:50;;;;;;;4.32;1.55;;;;;;;30.06;32.59;96334.13;5076919;28;20064;-67
2022/07/07 10:41:21;;;;;;;2.47;1.73;;;;;;;30.45;31.45;96337.59;5084081;28;20031;-68
2022/07/07 10:43:57;;;;;;;1.30;1.20;;;;;;;30.70;29.95;96338.19;5076171;28;20499;-68
2022/07/07 10:46:22;;;;;;;2.70;1.58;;;;;;;30.53;30.68;96330.91;5086464;28;20112;-68
2022/07/07 10:48:51;;;;;;;4.38;1.50;;;;;;;30.71;30.51;96321.59;5079972;28;20450;-69
2022/07/07 10:51:21;;;;;;;2.13;1.60;;;;;;;30.72;30.51;96320.53;5082818;28;20077;-69
2022/07/07 10:54:06;;;;;;;2.47;1.30;;;;;;;30.89;30.11;96324.25;5073348;28;20021;-68
2022/07/07 10:56:53;;;;;;;1.90;1.70;;;;;;;31.01;29.38;96317.56;5081202;28;20072;-68
2022/07/07 10:59:20;;;;;;;1.98;1.38;;;;;;;31.15;29.16;96319.84;5083415;28;20149;-68
2022/07/07 11:02:01;;;;;;;2.10;1.35;;;;;;;31.09;29.15;96315.44;5074841;28;20035;-68
2022/07/07 11:04:41;;;;;;;1.48;1.02;;;;;;;30.94;31.20;96307.97;5080819;28;20052;-69
2022/07/07 11:07:11;;;;;;;4.68;1.60;;;;;;;30.96;30.51;96316.69;5077748;28;20103;-69
2022/07/07 11:09:54;;;;;;;1.65;1.30;;;;;;;30.96;29.67;96324.84;5094641;28;20076;-68
2022/07/07 11:12:39;;;;;;;1.52;1.40;;;;;;;30.79;29.16;96320.31;5092914;28;20072;-69
2022/07/07 11:15:14;;;;;;;1.80;1.70;;;;;;;30.83;29.84;96318.72;5065181;28;20441;-69
2022/07/07 11:17:39;;;;;;;2.58;1.50;;;;;;;30.57;30.10;96315.72;5082423;28;20024;-68
2022/07/07 11:20:12;;;;;;;2.50;1.55;;;;;;;31.28;28.26;96314.00;5077766;28;20031;-69
2022/07/07 11:23:05;;;;;;;2.08;1.40;;;;;;;31.20;29.31;96306.34;5081410;28;20027;-68
2022/07/07 11:25:30;;;;;;;2.05;1.30;;;;;;;31.35;28.84;96299.34;5087360;28;20024;-69
2022/07/07 11:27:56;;;;;;;3.85;1.30;;;;;;;31.07;29.37;96299.41;5082656;28;20450;-68
2022/07/07 11:30:25;;;;;;;1.63;1.52;;;;;;;31.30;29.57;96287.38;5087165;28;20036;-68
2022/07/07 11:32:55;;;;;;;3.47;1.52;;;;;;;31.51;28.34;96294.88;5091813;28;20031;-69
2022/07/07 11:35:20;;;;;;;1.50;1.40;;;;;;;31.10;29.65;96288.00;5086727;28;20017;-68
2022/07/07 11:37:46;;;;;;;5.03;1.80;;;;;;;31.68;28.60;96297.41;5075317;28;20464;-68